Latest Coastal Weather Observations for Ballina

IDN60701

Issued at 7:41 pm EDT Thursday 19 January 2017 (issued every 10 minutes, with the page automatically refreshed every 10 minutes)

About coastal observations | Map of coastal stations | Coastal observations for NSW | Marine services | Other Formats
Station Details ID: 058198 Name: BALLINA AIRPORT AWS Lat: -28.84 Lon: 153.56 Height: 1.3 m
Data from the previous 72 hours. | See also: Recent months at Ballina
Date/Time
EDT
Temp
°C
Wind Pressure Rain since
9am
mm
Weather Cloud Vis
km
Sea
Height
m
Swell
Dir  Spd
kts
Gust
kts
hPa Trend Height
m
Period
s
Dir
19/07:30pm 24.9 ESE 8 13 1011.1 - 0.0 - Partly cloudy 10 - - - -
19/07:00pm 25.3 SE 9 13 1010.9 - 0.0 - Partly cloudy 10 - - - -
19/06:30pm 25.6 ESE 9 14 1010.7 - 0.0 - Partly cloudy 10 - - - -
19/06:00pm 26.0 SE 9 14 1010.6 - 0.0 - Cloudy 10 - - - -
19/05:30pm 26.0 SE 9 13 1010.7 - 0.0 - Partly cloudy 10 - - - -
19/05:00pm 26.4 SSE 11 15 1011.1 - 0.0 - Partly cloudy 10 - - - -
19/04:30pm 26.5 SSE 11 15 1011.2 - 0.0 - Cloudy 10 - - - -
19/04:00pm 27.1 SSE 11 15 1011.4 - 0.0 - Cloudy 10 - - - -
19/03:30pm 26.7 SSE 11 17 1011.8 - 0.0 - Cloudy 10 - - - -
19/03:00pm 26.7 SSE 12 17 1012.0 - 0.0 - Cloudy 10 - - - -
19/02:30pm 27.7 SSE 12 17 1012.2 - 0.0 - Partly cloudy 10 - - - -
19/02:00pm 27.6 SSE 12 17 1012.3 - 0.0 - Cloudy 10 - - - -
19/01:30pm 27.5 SSE 13 18 1012.5 - 0.0 - Cloudy 10 - - - -
19/01:00pm 28.3 S 12 17 1012.6 - 0.0 - Cloudy 10 - - - -
19/12:30pm 27.3 SSE 13 18 1012.7 - 0.0 - Partly cloudy 10 - - - -
19/12:00pm 27.1 SSE 14 19 1012.8 - 0.0 - Cloudy 10 - - - -
19/11:30am 27.3 S 13 17 1012.9 - 0.0 - Partly cloudy 10 - - - -
19/11:00am 26.4 S 11 16 1013.0 - 0.0 - Cloudy 10 - - - -
19/10:30am 26.4 S 11 16 1013.1 - 0.0 - Cloudy 10 - - - -
19/10:00am 25.9 S 11 16 1013.0 - 0.0 - Cloudy 10 - - - -
19/09:30am 25.6 S 9 13 1012.9 - 0.0 - Cloudy 10 - - - -
19/09:00am 25.6 S 11 16 1012.8 - 0.0 - Cloudy 10 - - - -
19/08:30am 25.5 S 10 14 1012.7 - 0.0 - Cloudy 10 - - - -
19/08:00am 25.4 S 11 15 1012.5 - 0.0 - Cloudy 10 - - - -
19/07:30am 25.3 S 11 17 1012.2 - 0.0 - Cloudy 10 - - - -
19/07:00am 24.8 S 10 15 1011.8 - 0.0 - Cloudy 10 - - - -
19/06:30am 24.7 S 11 19 1011.4 - 0.0 - Partly cloudy 10 - - - -
19/06:00am 24.7 S 9 13 1011.0 - 0.0 - Cloudy 9 - - - -
19/05:30am 25.0 SSW 11 16 1010.5 - 0.0 - Cloudy 9 - - - -
19/05:00am 25.1 SSW 11 17 1010.0 - 0.0 - Partly cloudy 9 - - - -
19/04:30am 25.0 SSW 11 16 1009.8 - 0.0 - Cloudy 9 - - - -
19/04:00am 24.9 SW 11 16 1009.5 - 0.0 - Partly cloudy 8 - - - -
19/03:37am 24.6 SW 11 17 1009.4 - 0.0 - Partly cloudy 7 - - - -
19/03:30am 24.7 SW 11 17 1009.3 - 0.0 - Partly cloudy 7 - - - -
19/03:00am 24.4 SW 12 17 1009.2 - 0.0 - Cloudy 7 - - - -
19/02:30am 24.2 SW 12 17 1009.3 - 0.0 - Cloudy 6 - - - -
19/02:00am 24.3 SSW 8 15 1009.2 - 0.0 - Cloudy 6 - - - -
19/01:30am 24.6 SSW 13 18 1009.4 - 0.0 - Cloudy 7 - - - -
19/01:00am 25.1 SSW 14 22 1009.3 - 0.0 - Cloudy 7 - - - -
19/12:44am 26.0 SSW 15 23 1009.3 - 0.0 - Partly cloudy 8 - - - -
19/12:30am 27.1 SSW 15 25 1009.1 - 0.0 - Partly cloudy 10 - - - -
19/12:26am 27.6 SW 10 25 1009.0 - 0.0 - Partly cloudy 10 - - - -
19/12:22am 27.4 NNW 4 23 1008.8 - 0.0 - Partly cloudy 10 - - - -
19/12:00am 26.7 N 2 5 1007.1 - 0.0 - Mostly cloudy 10 - - - -
 
Date/Time
EDT
Temp
°C
Wind Pressure Rain since
9am
mm
Weather Cloud Vis
km
Sea
Height
m
Swell
Dir  Spd
kts
Gust
kts
hPa Trend Height
m
Period
s
Dir
18/11:30pm 27.0 N 5 6 1007.1 - 0.0 - - 10 - - - -
18/11:00pm 26.9 N 4 5 1007.2 - 0.0 - - 10 - - - -
18/10:30pm 26.8 N 5 7 1007.5 - 0.0 - - 10 - - - -
18/10:00pm 26.9 N 5 7 1007.4 - 0.0 - - 10 - - - -
18/09:30pm 26.8 N 5 7 1007.3 - 0.0 - - 10 - - - -
18/09:00pm 27.0 N 5 6 1007.1 - 0.0 - Mostly clear 10 - - - -
18/08:30pm 27.6 N 8 11 1006.8 - 0.0 - - 10 - - - -
18/08:00pm 28.3 NNE 8 12 1006.5 - 0.0 - - 10 - - - -
18/07:30pm 29.3 NNE 9 13 1006.2 - 0.0 - - 10 - - - -
18/07:00pm 30.3 NNE 9 15 1006.1 - 0.0 - - 10 - - - -
18/06:30pm 31.4 N 10 14 1005.9 - 0.0 - - 10 - - - -
18/06:00pm 32.0 NNE 10 13 1005.9 - 0.0 - - 10 - - - -
18/05:30pm 31.9 NNE 11 15 1006.1 - 0.0 - - 10 - - - -
18/05:00pm 31.9 NNE 12 17 1006.2 - 0.0 - - 10 - - - -
18/04:30pm 32.5 N 13 17 1006.5 - 0.0 - - 10 - - - -
18/04:00pm 32.5 N 15 20 1007.0 - 0.0 - - 10 - - - -
18/03:30pm 33.0 NNE 13 18 1007.4 - 0.0 - - 10 - - - -
18/03:00pm 33.8 N 13 17 1007.9 - 0.0 - - 10 - - - -
18/02:30pm 34.2 NNE 11 17 1008.1 - 0.0 - - 10 - - - -
18/02:00pm 33.7 NNE 14 18 1008.6 - 0.0 - - 10 - - - -
18/01:30pm 35.7 N 8 11 1009.0 - 0.0 - - 10 - - - -
18/01:00pm 35.0 N 8 12 1009.5 - 0.0 - - 10 - - - -
18/12:30pm 34.3 NNW 8 12 1010.0 - 0.0 - - 10 - - - -
18/12:00pm 33.8 NW 7 13 1010.5 - 0.0 - - 10 - - - -
18/11:30am 33.1 NW 9 13 1010.8 - 0.0 - - 10 - - - -
18/11:00am 31.9 NNW 8 12 1011.3 - 0.0 - - 10 - - - -
18/10:30am 30.7 NNW 7 10 1011.6 - 0.0 - - 10 - - - -
18/10:00am 29.9 NNW 8 13 1011.8 - 0.0 - - 10 - - - -
18/09:30am 29.3 NNW 10 12 1012.0 - 0.0 - - 10 - - - -
18/09:00am 28.3 NNW 6 10 1012.4 - 0.0 - - 10 - - - -
18/08:30am 26.8 NNW 5 7 1012.5 - 0.0 - - 10 - - - -
18/08:00am 25.4 N 6 8 1012.7 - 0.0 - - 10 - - - -
18/07:30am 24.3 N 5 7 1012.6 - 0.0 - - 10 - - - -
18/07:00am 22.8 CALM 0 0 1012.5 - 0.0 - - 10 - - - -
18/06:30am 22.0 NNW 4 5 1012.2 - 0.0 - - 10 - - - -
18/06:00am 21.7 N 2 8 1011.8 - 0.0 - - 10 - - - -
18/05:30am 21.5 CALM 0 0 1012.0 - 0.0 - - 10 - - - -
18/05:00am 22.5 N 3 5 1011.7 - 0.0 - - 10 - - - -
18/04:30am 22.9 N 5 7 1011.7 - 0.0 - - 10 - - - -
18/04:00am 23.3 N 6 9 1011.6 - 0.0 - - 10 - - - -
18/03:30am 23.4 N 9 12 1011.7 - 0.0 - - 10 - - - -
18/03:00am 23.5 N 9 13 1012.0 - 0.0 - - 10 - - - -
18/02:30am 23.7 N 9 14 1012.4 - 0.0 - - 10 - - - -
18/02:00am 23.9 N 9 14 1012.7 - 0.0 - - 10 - - - -
18/01:30am 24.1 N 9 13 1013.0 - 0.0 - - 10 - - - -
18/01:00am 24.2 N 9 13 1013.5 - 0.0 - - 10 - - - -
18/12:30am 24.4 N 9 12 1014.0 - 0.0 - - 10 - - - -
18/12:00am 24.5 N 11 16 1014.4 - 0.0 - - 10 - - - -
 
Date/Time
EDT
Temp
°C
Wind Pressure Rain since
9am
mm
Weather Cloud Vis
km
Sea
Height
m
Swell
Dir  Spd
kts
Gust
kts
hPa Trend Height
m
Period
s
Dir
17/11:30pm 24.7 N 10 14 1014.6 - 0.0 - - 10 - - - -
17/11:00pm 24.8 N 11 17 1014.7 - 0.0 - - 10 - - - -
17/10:30pm 25.0 N 13 19 1014.7 - 0.0 - - 10 - - - -
17/10:00pm 25.1 N 12 18 1014.7 - 0.0 - - 10 - - - -
17/09:30pm 25.1 NNE 12 16 1014.7 - 0.0 - - 10 - - - -
17/09:00pm 25.4 NNE 11 17 1014.6 - 0.0 - - 10 - - - -
17/08:30pm 25.4 NNE 12 16 1014.4 - 0.0 - - 10 - - - -
17/08:00pm 25.8 NNE 12 17 1014.2 - 0.0 - - 10 - - - -
17/07:30pm 26.3 NNE 12 21 1014.0 - 0.0 - - 10 - - - -
17/07:00pm 27.1 N 13 18 1013.9 - 0.0 - - 10 - - - -
17/06:30pm 27.8 NNE 15 22 1013.6 - 0.0 - - 10 - - - -
17/06:00pm 28.3 NNE 15 22 1013.5 - 0.0 - - 10 - - - -
17/05:30pm 28.8 NNE 14 19 1013.6 - 0.0 - - 10 - - - -
17/05:00pm 29.3 NE 15 20 1013.8 - 0.0 - - 10 - - - -
17/04:30pm 29.3 NE 17 23 1014.0 - 0.0 - - 10 - - - -
17/04:00pm 29.0 NE 16 24 1014.0 - 0.0 - - 10 - - - -
17/03:30pm 28.9 NE 19 25 1014.2 - 0.0 - - 10 - - - -
17/03:00pm 28.7 NE 20 25 1014.4 - 0.0 - - 10 - - - -
17/02:30pm 29.0 NE 17 24 1014.7 - 0.0 - - 10 - - - -
17/02:00pm 29.5 NE 18 23 1015.1 - 0.0 - - 10 - - - -
17/01:30pm 29.9 NE 15 21 1015.6 - 0.0 - - 10 - - - -
17/01:00pm 29.3 NE 16 21 1016.1 - 0.0 - Partly cloudy 10 - - - -
17/12:30pm 28.8 NE 17 21 1016.5 - 0.0 - Partly cloudy 10 - - - -
17/12:00pm 29.0 NE 16 20 1016.6 - 0.0 - Mostly clear 10 - - - -
17/11:30am 29.2 NE 13 16 1016.8 - 0.0 - Partly cloudy 10 - - - -
17/11:00am 29.1 NE 13 17 1017.0 - 0.0 - Partly cloudy 10 - - - -
17/10:30am 29.7 NE 11 14 1017.2 - 0.0 - Partly cloudy 10 - - - -
17/10:00am 29.0 N 5 13 1017.3 - 0.0 - Partly cloudy 10 - - - -
17/09:30am 27.8 NNW 5 9 1017.4 - 0.0 - Partly cloudy 10 - - - -
17/09:00am 27.5 N 6 8 1017.5 - 0.4 - Mostly clear 10 - - - -
17/08:30am 26.0 NNW 4 7 1017.5 - 0.4 - - 10 - - - -
17/08:00am 24.7 CALM 0 0 1017.5 - 0.4 - - 10 - - - -
17/07:30am 23.3 CALM 0 0 1017.3 - 0.4 - - 10 - - - -
17/07:00am 21.6 CALM 0 0 1017.1 - 0.4 - - 10 - - - -
17/06:53am 21.1 CALM 0 0 1017.0 - 0.4 - Partly cloudy 10 - - - -
17/06:30am 20.0 CALM 0 0 1016.8 - 0.4 - Partly cloudy 3 - - - -
17/06:00am 20.2 CALM 0 0 1016.5 - 0.4 - Mostly clear 0.5 - - - -
17/05:46am 20.0 CALM 0 0 1016.4 - 0.4 - Partly cloudy 5 - - - -
17/05:36am 20.4 CALM 0 0 1016.3 - 0.4 - Partly cloudy 10 - - - -
17/05:30am 20.4 CALM 0 0 1016.3 - 0.4 - Partly cloudy 10 - - - -
17/05:00am 20.5 CALM 0 0 1016.1 - 0.4 - Partly cloudy 0.8 - - - -
17/04:56am 20.6 CALM 0 0 1016.1 - 0.4 - Partly cloudy 0.8 - - - -
17/04:41am 21.0 SSW 1 3 1015.9 - 0.4 - - 4 - - - -
17/04:30am 20.7 CALM 0 0 1015.9 - 0.4 - - 10 - - - -
17/04:00am 20.8 CALM 0 0 1016.0 - 0.4 - Partly cloudy 10 - - - -
17/03:30am 20.8 CALM 0 0 1016.0 - 0.4 - Partly cloudy 10 - - - -
17/03:00am 21.4 CALM 0 0 1016.1 - 0.4 - Mostly clear 10 - - - -
17/02:41am 21.0 CALM 0 0 1016.2 - 0.4 - Partly cloudy 10 - - - -
17/02:30am 20.9 CALM 0 0 1016.2 - 0.4 - Partly cloudy 2 - - - -
17/02:00am 20.9 CALM 0 0 1016.3 - 0.4 - - 2 - - - -
17/01:53am 21.0 CALM 0 0 1016.3 - 0.4 - - 3 - - - -
17/01:30am 21.3 CALM 0 0 1016.3 - 0.4 - - 10 - - - -
17/01:00am 21.6 CALM 0 0 1016.5 - 0.4 - - 10 - - - -
17/12:59am 21.6 CALM 0 0 1016.5 - 0.4 - - 10 - - - -
17/12:30am 22.3 CALM 0 0 1016.7 - 0.4 - - 1 - - - -
17/12:20am 22.1 CALM 0 0 1016.9 - 0.4 - - 3 - - - -
17/12:00am 22.2 CALM 0 0 1016.9 - 0.4 - - 10 - - - -
 
Date/Time
EDT
Temp
°C
Wind Pressure Rain since
9am
mm
Weather Cloud Vis
km
Sea
Height
m
Swell
Dir  Spd
kts
Gust
kts
hPa Trend Height
m
Period
s
Dir
16/11:30pm 23.0 CALM 0 0 1017.0 - 0.4 - - 10 - - - -
16/11:00pm 23.5 CALM 0 0 1017.2 - 0.4 - - 10 - - - -
16/10:30pm 23.8 CALM 0 0 1017.3 - 0.4 - Partly cloudy 10 - - - -
16/10:00pm 24.0 CALM 0 0 1017.2 - 0.4 - Partly cloudy 10 - - - -
16/09:30pm 24.0 SSW 3 4 1017.1 - 0.4 - Partly cloudy 10 - - - -
16/09:00pm 24.2 CALM 0 0 1016.9 - 0.4 - Cloudy 10 - - - -
16/08:30pm 24.6 CALM 0 0 1016.7 - 0.4 - Partly cloudy 10 - - - -
16/08:00pm 24.9 CALM 0 0 1016.6 - 0.4 - Cloudy 10 - - - -

Other Formats:

Comma delimited format used in spreadsheet applications
http://www.bom.gov.au/fwo/IDN60701/IDN60701.94596.axf

JavaScript Object Notation format (JSON) in row-major order
http://www.bom.gov.au/fwo/IDN60701/IDN60701.94596.json